sensor_id;sensor_type;location;lat;lon;timestamp;pressure;altitude;pressure_sealevel;temperature;humidity
53550;BME280;73079;52.914;-0.982;2023-11-19T00:00:08;99962.44;;;9.37;100.00
53550;BME280;73079;52.914;-0.982;2023-11-19T00:02:39;99955.84;;;9.40;100.00
53550;BME280;73079;52.914;-0.982;2023-11-19T00:05:06;99968.69;;;9.44;100.00
53550;BME280;73079;52.914;-0.982;2023-11-19T00:07:36;99961.72;;;9.50;95.55
53550;BME280;73079;52.914;-0.982;2023-11-19T00:10:03;99960.09;;;9.56;94.28
53550;BME280;73079;52.914;-0.982;2023-11-19T00:12:32;99961.72;;;9.50;95.19
53550;BME280;73079;52.914;-0.982;2023-11-19T00:14:58;99950.13;;;9.43;97.64
53550;BME280;73079;52.914;-0.982;2023-11-19T00:17:24;99949.72;;;9.46;95.86
53550;BME280;73079;52.914;-0.982;2023-11-19T00:19:51;99952.28;;;9.54;91.50
53550;BME280;73079;52.914;-0.982;2023-11-19T00:22:17;99948.72;;;9.47;92.68
53550;BME280;73079;52.914;-0.982;2023-11-19T00:24:43;99950.97;;;9.43;93.12
53550;BME280;73079;52.914;-0.982;2023-11-19T00:27:10;99935.31;;;9.47;91.57
53550;BME280;73079;52.914;-0.982;2023-11-19T00:29:37;99941.13;;;9.50;90.04
53550;BME280;73079;52.914;-0.982;2023-11-19T00:32:04;99935.34;;;9.54;89.25
53550;BME280;73079;52.914;-0.982;2023-11-19T00:34:31;99939.25;;;9.51;89.92
53550;BME280;73079;52.914;-0.982;2023-11-19T00:36:58;99930.59;;;9.49;90.02
53550;BME280;73079;52.914;-0.982;2023-11-19T00:39:26;99916.94;;;9.44;89.75
53550;BME280;73079;52.914;-0.982;2023-11-19T00:41:52;99921.91;;;9.47;88.91
53550;BME280;73079;52.914;-0.982;2023-11-19T00:44:18;99900.47;;;9.47;89.16
53550;BME280;73079;52.914;-0.982;2023-11-19T00:46:45;99927.03;;;9.48;89.96
53550;BME280;73079;52.914;-0.982;2023-11-19T00:49:11;99923.16;;;9.51;88.50
53550;BME280;73079;52.914;-0.982;2023-11-19T00:51:38;99933.78;;;9.38;90.23
53550;BME280;73079;52.914;-0.982;2023-11-19T00:54:06;99934.28;;;9.48;88.41
53550;BME280;73079;52.914;-0.982;2023-11-19T00:56:32;99929.34;;;9.51;87.95
53550;BME280;73079;52.914;-0.982;2023-11-19T00:58:58;99923.94;;;9.45;89.41
53550;BME280;73079;52.914;-0.982;2023-11-19T01:01:25;99925.16;;;9.42;89.34
53550;BME280;73079;52.914;-0.982;2023-11-19T01:03:51;99926.38;;;9.40;90.20
53550;BME280;73079;52.914;-0.982;2023-11-19T01:06:27;99928.53;;;9.51;87.53
53550;BME280;73079;52.914;-0.982;2023-11-19T01:08:53;99926.47;;;9.53;87.23
53550;BME280;73079;52.914;-0.982;2023-11-19T01:11:24;99920.53;;;9.64;85.97
53550;BME280;73079;52.914;-0.982;2023-11-19T01:13:56;99926.16;;;9.69;84.77
53550;BME280;73079;52.914;-0.982;2023-11-19T01:16:25;99929.63;;;9.63;85.86
53550;BME280;73079;52.914;-0.982;2023-11-19T01:18:54;99931.09;;;9.66;84.47
53550;BME280;73079;52.914;-0.982;2023-11-19T01:21:22;99937.81;;;9.55;86.13
53550;BME280;73079;52.914;-0.982;2023-11-19T01:23:50;99946.25;;;9.52;86.47
53550;BME280;73079;52.914;-0.982;2023-11-19T01:26:23;99944.22;;;9.54;86.48
53550;BME280;73079;52.914;-0.982;2023-11-19T01:28:52;99958.53;;;9.40;89.46
53550;BME280;73079;52.914;-0.982;2023-11-19T01:31:22;99947.44;;;9.43;88.68
53550;BME280;73079;52.914;-0.982;2023-11-19T01:33:49;99954.91;;;9.19;95.38
53550;BME280;73079;52.914;-0.982;2023-11-19T01:36:17;99964.59;;;9.20;96.20
53550;BME280;73079;52.914;-0.982;2023-11-19T01:38:46;99964.00;;;9.25;92.74
53550;BME280;73079;52.914;-0.982;2023-11-19T01:41:13;99965.50;;;9.27;92.08
53550;BME280;73079;52.914;-0.982;2023-11-19T01:43:41;99966.19;;;9.43;89.16
53550;BME280;73079;52.914;-0.982;2023-11-19T01:46:07;99960.88;;;9.21;91.78
53550;BME280;73079;52.914;-0.982;2023-11-19T01:48:39;99966.63;;;9.18;93.54
53550;BME280;73079;52.914;-0.982;2023-11-19T01:51:07;99958.41;;;9.20;94.34
53550;BME280;73079;52.914;-0.982;2023-11-19T01:53:34;99967.31;;;9.27;93.35
53550;BME280;73079;52.914;-0.982;2023-11-19T01:56:02;99971.66;;;9.28;90.77
53550;BME280;73079;52.914;-0.982;2023-11-19T01:58:30;99973.97;;;9.31;91.14
53550;BME280;73079;52.914;-0.982;2023-11-19T02:00:57;99971.16;;;9.18;93.81
53550;BME280;73079;52.914;-0.982;2023-11-19T02:03:24;99974.09;;;9.23;91.91
53550;BME280;73079;52.914;-0.982;2023-11-19T02:05:52;99969.31;;;9.18;95.97
53550;BME280;73079;52.914;-0.982;2023-11-19T02:08:19;99979.00;;;9.19;96.20
53550;BME280;73079;52.914;-0.982;2023-11-19T02:10:46;99977.31;;;9.11;100.00
53550;BME280;73079;52.914;-0.982;2023-11-19T02:13:12;99965.13;;;8.87;100.00
53550;BME280;73079;52.914;-0.982;2023-11-19T02:15:41;99964.34;;;8.72;100.00
53550;BME280;73079;52.914;-0.982;2023-11-19T02:18:21;99964.75;;;8.69;100.00
53550;BME280;73079;52.914;-0.982;2023-11-19T02:20:48;99956.63;;;8.62;100.00
53550;BME280;73079;52.914;-0.982;2023-11-19T02:23:15;99954.72;;;8.41;100.00
53550;BME280;73079;52.914;-0.982;2023-11-19T02:25:41;99949.59;;;8.25;100.00
53550;BME280;73079;52.914;-0.982;2023-11-19T02:28:09;99950.38;;;8.40;100.00
53550;BME280;73079;52.914;-0.982;2023-11-19T02:30:37;99951.97;;;8.49;100.00
53550;BME280;73079;52.914;-0.982;2023-11-19T02:33:04;99955.00;;;8.31;100.00
53550;BME280;73079;52.914;-0.982;2023-11-19T02:35:32;99949.59;;;8.25;100.00
53550;BME280;73079;52.914;-0.982;2023-11-19T02:37:59;99948.97;;;8.23;100.00
53550;BME280;73079;52.914;-0.982;2023-11-19T02:40:26;99954.19;;;8.31;100.00
53550;BME280;73079;52.914;-0.982;2023-11-19T02:42:52;99950.50;;;8.32;100.00
53550;BME280;73079;52.914;-0.982;2023-11-19T02:45:20;99948.19;;;8.44;100.00
53550;BME280;73079;52.914;-0.982;2023-11-19T02:47:47;99939.47;;;8.42;100.00
53550;BME280;73079;52.914;-0.982;2023-11-19T02:50:14;99940.53;;;8.41;100.00
53550;BME280;73079;52.914;-0.982;2023-11-19T02:52:40;99944.22;;;8.54;100.00
53550;BME280;73079;52.914;-0.982;2023-11-19T02:55:07;99940.75;;;8.82;100.00
53550;BME280;73079;52.914;-0.982;2023-11-19T02:57:36;99938.31;;;9.09;100.00
53550;BME280;73079;52.914;-0.982;2023-11-19T03:00:02;99939.88;;;9.25;100.00
53550;BME280;73079;52.914;-0.982;2023-11-19T03:02:40;99936.91;;;9.13;100.00
53550;BME280;73079;52.914;-0.982;2023-11-19T03:05:12;99922.63;;;9.06;100.00
53550;BME280;73079;52.914;-0.982;2023-11-19T03:07:41;99920.91;;;8.98;100.00
53550;BME280;73079;52.914;-0.982;2023-11-19T03:10:08;99919.94;;;9.06;100.00
53550;BME280;73079;52.914;-0.982;2023-11-19T03:12:38;99919.81;;;9.14;100.00
53550;BME280;73079;52.914;-0.982;2023-11-19T03:15:05;99920.06;;;9.19;100.00
53550;BME280;73079;52.914;-0.982;2023-11-19T03:17:32;99921.22;;;9.10;100.00
53550;BME280;73079;52.914;-0.982;2023-11-19T03:20:01;99905.84;;;9.25;95.54
53550;BME280;73079;52.914;-0.982;2023-11-19T03:22:28;99914.63;;;9.12;97.58
53550;BME280;73079;52.914;-0.982;2023-11-19T03:24:55;99921.47;;;8.93;100.00
53550;BME280;73079;52.914;-0.982;2023-11-19T03:27:21;99923.78;;;8.97;100.00
53550;BME280;73079;52.914;-0.982;2023-11-19T03:29:49;99926.91;;;9.00;100.00
53550;BME280;73079;52.914;-0.982;2023-11-19T03:32:17;99924.66;;;9.04;98.21
53550;BME280;73079;52.914;-0.982;2023-11-19T03:34:43;99935.38;;;9.04;99.75
53550;BME280;73079;52.914;-0.982;2023-11-19T03:37:10;99928.72;;;9.21;96.19
53550;BME280;73079;52.914;-0.982;2023-11-19T03:39:36;99925.06;;;9.29;93.67
53550;BME280;73079;52.914;-0.982;2023-11-19T03:42:03;99930.84;;;9.32;93.29
53550;BME280;73079;52.914;-0.982;2023-11-19T03:44:29;99925.41;;;9.19;95.31
53550;BME280;73079;52.914;-0.982;2023-11-19T03:46:55;99921.00;;;9.40;93.51
53550;BME280;73079;52.914;-0.982;2023-11-19T03:49:21;99913.06;;;9.25;95.97
53550;BME280;73079;52.914;-0.982;2023-11-19T03:51:47;99921.13;;;9.25;93.85
53550;BME280;73079;52.914;-0.982;2023-11-19T03:54:14;99917.75;;;9.16;95.80
53550;BME280;73079;52.914;-0.982;2023-11-19T03:56:41;99930.47;;;9.07;96.71
53550;BME280;73079;52.914;-0.982;2023-11-19T03:59:07;99929.09;;;9.18;93.54
53550;BME280;73079;52.914;-0.982;2023-11-19T04:01:35;99929.84;;;9.05;94.68
53550;BME280;73079;52.914;-0.982;2023-11-19T04:04:03;99927.84;;;9.14;92.88
53550;BME280;73079;52.914;-0.982;2023-11-19T04:06:29;99929.06;;;9.11;93.26
53550;BME280;73079;52.914;-0.982;2023-11-19T04:08:55;99936.13;;;9.19;94.82
53550;BME280;73079;52.914;-0.982;2023-11-19T04:11:22;99927.41;;;9.10;96.89
53550;BME280;73079;52.914;-0.982;2023-11-19T04:13:48;99922.16;;;9.24;94.05
53550;BME280;73079;52.914;-0.982;2023-11-19T04:16:14;99906.16;;;9.09;98.77
53550;BME280;73079;52.914;-0.982;2023-11-19T04:18:41;99913.94;;;9.04;100.00
53550;BME280;73079;52.914;-0.982;2023-11-19T04:21:07;99903.09;;;9.12;100.00
53550;BME280;73079;52.914;-0.982;2023-11-19T04:23:36;99905.97;;;9.10;100.00
53550;BME280;73079;52.914;-0.982;2023-11-19T04:26:02;99911.13;;;9.12;100.00
53550;BME280;73079;52.914;-0.982;2023-11-19T04:28:33;99898.19;;;9.16;100.00
53550;BME280;73079;52.914;-0.982;2023-11-19T04:30:59;99900.97;;;9.01;100.00
53550;BME280;73079;52.914;-0.982;2023-11-19T04:33:25;99909.09;;;9.14;100.00
53550;BME280;73079;52.914;-0.982;2023-11-19T04:35:51;99907.66;;;9.18;100.00
53550;BME280;73079;52.914;-0.982;2023-11-19T04:38:19;99906.78;;;9.11;100.00
53550;BME280;73079;52.914;-0.982;2023-11-19T04:40:48;99907.91;;;9.23;100.00
53550;BME280;73079;52.914;-0.982;2023-11-19T04:43:14;99908.97;;;9.29;100.00
53550;BME280;73079;52.914;-0.982;2023-11-19T04:45:42;99900.47;;;9.47;100.00
53550;BME280;73079;52.914;-0.982;2023-11-19T04:48:08;99900.84;;;9.44;100.00
53550;BME280;73079;52.914;-0.982;2023-11-19T04:50:34;99906.28;;;9.57;100.00
53550;BME280;73079;52.914;-0.982;2023-11-19T04:53:00;99911.63;;;9.57;100.00
53550;BME280;73079;52.914;-0.982;2023-11-19T04:55:26;99915.00;;;9.38;100.00
53550;BME280;73079;52.914;-0.982;2023-11-19T04:57:54;99915.84;;;9.66;99.90
53550;BME280;73079;52.914;-0.982;2023-11-19T05:00:20;99922.59;;;9.62;100.00
53550;BME280;73079;52.914;-0.982;2023-11-19T05:02:48;99930.28;;;9.37;100.00
53550;BME280;73079;52.914;-0.982;2023-11-19T05:05:16;99926.47;;;9.53;100.00
53550;BME280;73079;52.914;-0.982;2023-11-19T05:07:43;99924.97;;;9.44;100.00
53550;BME280;73079;52.914;-0.982;2023-11-19T05:10:09;99928.47;;;9.44;100.00
53550;BME280;73079;52.914;-0.982;2023-11-19T05:12:35;99924.78;;;9.45;100.00
53550;BME280;73079;52.914;-0.982;2023-11-19T05:15:01;99928.97;;;9.55;100.00
53550;BME280;73079;52.914;-0.982;2023-11-19T05:17:27;99931.44;;;9.56;100.00
53550;BME280;73079;52.914;-0.982;2023-11-19T05:19:54;99916.38;;;9.55;100.00
53550;BME280;73079;52.914;-0.982;2023-11-19T05:22:20;99921.50;;;9.50;100.00
53550;BME280;73079;52.914;-0.982;2023-11-19T05:24:46;99919.41;;;9.45;100.00
53550;BME280;73079;52.914;-0.982;2023-11-19T05:27:14;99923.66;;;9.61;99.81
53550;BME280;73079;52.914;-0.982;2023-11-19T05:29:40;99935.56;;;9.59;100.00
53550;BME280;73079;52.914;-0.982;2023-11-19T05:32:07;99932.38;;;9.70;97.08
53550;BME280;73079;52.914;-0.982;2023-11-19T05:34:33;99929.81;;;9.62;96.77
53550;BME280;73079;52.914;-0.982;2023-11-19T05:37:00;99928.59;;;9.64;95.31
53550;BME280;73079;52.914;-0.982;2023-11-19T05:39:26;99914.25;;;9.85;91.19
53550;BME280;73079;52.914;-0.982;2023-11-19T05:41:51;99921.97;;;9.60;95.44
53550;BME280;73079;52.914;-0.982;2023-11-19T05:44:17;99910.00;;;9.56;96.57
53550;BME280;73079;52.914;-0.982;2023-11-19T05:46:44;99905.31;;;9.65;95.28
53550;BME280;73079;52.914;-0.982;2023-11-19T05:49:11;99904.22;;;9.59;95.53
53550;BME280;73079;52.914;-0.982;2023-11-19T05:51:37;99905.31;;;9.71;93.33
53550;BME280;73079;52.914;-0.982;2023-11-19T05:54:06;99902.25;;;9.75;90.20
53550;BME280;73079;52.914;-0.982;2023-11-19T05:56:33;99911.63;;;9.57;93.13
53550;BME280;73079;52.914;-0.982;2023-11-19T05:59:01;99913.31;;;9.58;91.96
53550;BME280;73079;52.914;-0.982;2023-11-19T06:01:29;99909.44;;;9.67;89.97
53550;BME280;73079;52.914;-0.982;2023-11-19T06:03:55;99908.19;;;9.63;90.19
53550;BME280;73079;52.914;-0.982;2023-11-19T06:06:21;99900.94;;;9.64;89.06
53550;BME280;73079;52.914;-0.982;2023-11-19T06:08:47;99904.31;;;9.73;87.67
53550;BME280;73079;52.914;-0.982;2023-11-19T06:11:15;99903.47;;;9.72;86.91
53550;BME280;73079;52.914;-0.982;2023-11-19T06:13:44;99909.91;;;9.78;86.70
53550;BME280;73079;52.914;-0.982;2023-11-19T06:16:10;99897.19;;;9.93;84.69
53550;BME280;73079;52.914;-0.982;2023-11-19T06:18:36;99898.81;;;9.94;84.71
53550;BME280;73079;52.914;-0.982;2023-11-19T06:21:02;99911.03;;;10.03;84.84
53550;BME280;73079;52.914;-0.982;2023-11-19T06:23:28;99913.28;;;9.93;85.83
53550;BME280;73079;52.914;-0.982;2023-11-19T06:25:54;99921.34;;;9.93;85.90
53550;BME280;73079;52.914;-0.982;2023-11-19T06:28:21;99914.66;;;9.76;88.45
53550;BME280;73079;52.914;-0.982;2023-11-19T06:30:47;99912.75;;;9.69;89.65
53550;BME280;73079;52.914;-0.982;2023-11-19T06:33:13;99908.72;;;9.52;96.18
53550;BME280;73079;52.914;-0.982;2023-11-19T06:35:39;99909.56;;;9.59;97.22
53550;BME280;73079;52.914;-0.982;2023-11-19T06:38:06;99912.75;;;9.69;93.96
53550;BME280;73079;52.914;-0.982;2023-11-19T06:40:32;99915.34;;;9.56;96.87
53550;BME280;73079;52.914;-0.982;2023-11-19T06:42:59;99915.84;;;9.66;96.70
53550;BME280;73079;52.914;-0.982;2023-11-19T06:45:27;99923.06;;;9.73;93.84
53550;BME280;73079;52.914;-0.982;2023-11-19T06:47:53;99917.53;;;9.74;93.95
53550;BME280;73079;52.914;-0.982;2023-11-19T06:50:19;99926.00;;;9.78;91.54
53550;BME280;73079;52.914;-0.982;2023-11-19T06:52:45;99921.69;;;9.48;97.37
53550;BME280;73079;52.914;-0.982;2023-11-19T06:55:11;99921.50;;;9.50;97.19
53550;BME280;73079;52.914;-0.982;2023-11-19T06:57:37;99929.72;;;9.48;97.40
53550;BME280;73079;52.914;-0.982;2023-11-19T07:00:04;99927.84;;;9.42;98.71
53550;BME280;73079;52.914;-0.982;2023-11-19T07:02:32;99920.13;;;9.32;100.00
53550;BME280;73079;52.914;-0.982;2023-11-19T07:04:58;99924.34;;;9.42;95.75
53550;BME280;73079;52.914;-0.982;2023-11-19T07:07:25;99926.66;;;9.23;100.00
53550;BME280;73079;52.914;-0.982;2023-11-19T07:09:52;99925.34;;;9.41;96.81
53550;BME280;73079;52.914;-0.982;2023-11-19T07:12:17;99927.03;;;9.48;95.50
53550;BME280;73079;52.914;-0.982;2023-11-19T07:14:44;99931.50;;;9.35;98.86
53550;BME280;73079;52.914;-0.982;2023-11-19T07:17:10;99931.53;;;9.41;95.63
53550;BME280;73079;52.914;-0.982;2023-11-19T07:19:37;99931.53;;;9.41;95.57
53550;BME280;73079;52.914;-0.982;2023-11-19T07:22:04;99926.63;;;9.45;94.07
53550;BME280;73079;52.914;-0.982;2023-11-19T07:24:30;99926.28;;;9.55;93.32
53550;BME280;73079;52.914;-0.982;2023-11-19T07:26:57;99923.66;;;9.61;91.82
53550;BME280;73079;52.914;-0.982;2023-11-19T07:29:23;99926.53;;;9.60;91.64
53550;BME280;73079;52.914;-0.982;2023-11-19T07:31:51;99918.97;;;9.42;95.00
53550;BME280;73079;52.914;-0.982;2023-11-19T07:34:17;99918.09;;;9.35;98.01
53550;BME280;73079;52.914;-0.982;2023-11-19T07:36:48;99921.31;;;9.23;100.00
53550;BME280;73079;52.914;-0.982;2023-11-19T07:39:14;99922.59;;;9.27;100.00
53550;BME280;73079;52.914;-0.982;2023-11-19T07:41:40;99923.41;;;9.28;100.00
53550;BME280;73079;52.914;-0.982;2023-11-19T07:44:06;99925.97;;;9.43;98.76
53550;BME280;73079;52.914;-0.982;2023-11-19T07:46:32;99929.78;;;9.55;94.67
53550;BME280;73079;52.914;-0.982;2023-11-19T07:48:58;99928.78;;;9.63;93.98
53550;BME280;73079;52.914;-0.982;2023-11-19T07:51:24;99928.69;;;9.78;90.55
53550;BME280;73079;52.914;-0.982;2023-11-19T07:53:52;99939.03;;;9.81;89.82
53550;BME280;73079;52.914;-0.982;2023-11-19T07:56:18;99941.47;;;9.76;91.48
53550;BME280;73079;52.914;-0.982;2023-11-19T07:58:45;99937.16;;;9.81;89.65
53550;BME280;73079;52.914;-0.982;2023-11-19T08:01:15;99936.09;;;9.76;91.11
53550;BME280;73079;52.914;-0.982;2023-11-19T08:03:44;99938.41;;;9.85;88.66
53550;BME280;73079;52.914;-0.982;2023-11-19T08:06:13;99930.31;;;9.79;90.20
53550;BME280;73079;52.914;-0.982;2023-11-19T08:08:42;99944.41;;;9.87;90.14
53550;BME280;73079;52.914;-0.982;2023-11-19T08:11:12;99939.41;;;9.78;91.45
53550;BME280;73079;52.914;-0.982;2023-11-19T08:13:41;99948.94;;;9.87;90.73
53550;BME280;73079;52.914;-0.982;2023-11-19T08:16:11;99953.59;;;10.06;88.31
53550;BME280;73079;52.914;-0.982;2023-11-19T08:18:37;99949.41;;;9.97;86.81
53550;BME280;73079;52.914;-0.982;2023-11-19T08:21:04;99950.47;;;10.03;87.62
53550;BME280;73079;52.914;-0.982;2023-11-19T08:23:34;99948.59;;;10.03;85.87
53550;BME280;73079;52.914;-0.982;2023-11-19T08:26:00;99945.16;;;10.09;85.80
53550;BME280;73079;52.914;-0.982;2023-11-19T08:28:27;99935.47;;;10.15;86.13
53550;BME280;73079;52.914;-0.982;2023-11-19T08:30:53;99937.56;;;10.20;85.31
53550;BME280;73079;52.914;-0.982;2023-11-19T08:33:19;99930.69;;;10.11;86.82
53550;BME280;73079;52.914;-0.982;2023-11-19T08:35:48;99923.09;;;10.21;86.51
53550;BME280;73079;52.914;-0.982;2023-11-19T08:38:14;99936.28;;;10.09;86.07
53550;BME280;73079;52.914;-0.982;2023-11-19T08:40:40;99931.09;;;10.14;86.69
53550;BME280;73079;52.914;-0.982;2023-11-19T08:43:06;99932.19;;;10.20;86.01
53550;BME280;73079;52.914;-0.982;2023-11-19T08:45:50;99929.38;;;10.35;84.01
53550;BME280;73079;52.914;-0.982;2023-11-19T08:48:17;99933.03;;;10.27;85.22
53550;BME280;73079;52.914;-0.982;2023-11-19T08:50:43;99932.28;;;10.46;84.01
53550;BME280;73079;52.914;-0.982;2023-11-19T08:53:09;99942.59;;;10.36;85.58
53550;BME280;73079;52.914;-0.982;2023-11-19T08:55:35;99934.75;;;10.41;84.63
53550;BME280;73079;52.914;-0.982;2023-11-19T08:58:01;99934.13;;;10.39;86.31
53550;BME280;73079;52.914;-0.982;2023-11-19T09:00:27;99931.88;;;10.50;86.23
53550;BME280;73079;52.914;-0.982;2023-11-19T09:02:56;99937.88;;;10.58;84.55
53550;BME280;73079;52.914;-0.982;2023-11-19T09:05:24;99936.00;;;10.45;85.64
53550;BME280;73079;52.914;-0.982;2023-11-19T09:07:50;99938.06;;;10.43;87.13
53550;BME280;73079;52.914;-0.982;2023-11-19T09:10:19;99937.97;;;10.30;88.31
53550;BME280;73079;52.914;-0.982;2023-11-19T09:12:45;99930.41;;;10.40;88.77
53550;BME280;73079;52.914;-0.982;2023-11-19T09:15:11;99928.97;;;10.44;89.18
53550;BME280;73079;52.914;-0.982;2023-11-19T09:17:37;99931.09;;;10.62;88.56
53550;BME280;73079;52.914;-0.982;2023-11-19T09:20:06;99936.41;;;10.42;91.80
53550;BME280;73079;52.914;-0.982;2023-11-19T09:22:34;99934.78;;;10.55;92.64
53550;BME280;73079;52.914;-0.982;2023-11-19T09:25:08;99926.88;;;10.33;96.62
53550;BME280;73079;52.914;-0.982;2023-11-19T09:27:34;99934.75;;;10.41;97.71
53550;BME280;73079;52.914;-0.982;2023-11-19T09:30:00;99943.59;;;10.35;100.00
53550;BME280;73079;52.914;-0.982;2023-11-19T09:32:28;99928.97;;;10.44;97.95
53550;BME280;73079;52.914;-0.982;2023-11-19T09:34:54;99933.94;;;10.48;100.00
53550;BME280;73079;52.914;-0.982;2023-11-19T09:37:21;99930.84;;;10.51;98.31
53550;BME280;73079;52.914;-0.982;2023-11-19T09:39:47;99926.47;;;10.36;100.00
53550;BME280;73079;52.914;-0.982;2023-11-19T09:42:13;99926.09;;;10.39;100.00
53550;BME280;73079;52.914;-0.982;2023-11-19T09:44:42;99921.56;;;10.46;100.00
53550;BME280;73079;52.914;-0.982;2023-11-19T09:47:09;99922.41;;;10.54;99.86
53550;BME280;73079;52.914;-0.982;2023-11-19T09:49:36;99914.13;;;10.62;98.94
53550;BME280;73079;52.914;-0.982;2023-11-19T09:52:03;99925.13;;;10.74;93.53
53550;BME280;73079;52.914;-0.982;2023-11-19T09:54:31;99921.81;;;10.72;92.05
53550;BME280;73079;52.914;-0.982;2023-11-19T09:56:58;99917.47;;;10.91;91.93
53550;BME280;73079;52.914;-0.982;2023-11-19T09:59:28;99923.28;;;10.88;93.52
53550;BME280;73079;52.914;-0.982;2023-11-19T10:01:55;99922.03;;;11.03;91.48
53550;BME280;73079;52.914;-0.982;2023-11-19T10:04:22;99928.84;;;11.13;89.98
53550;BME280;73079;52.914;-0.982;2023-11-19T10:06:49;99930.09;;;11.17;87.25
53550;BME280;73079;52.914;-0.982;2023-11-19T10:09:15;99934.03;;;11.14;88.31
53550;BME280;73079;52.914;-0.982;2023-11-19T10:11:43;99928.22;;;11.24;86.75
53550;BME280;73079;52.914;-0.982;2023-11-19T10:14:09;99928.44;;;11.22;86.13
53550;BME280;73079;52.914;-0.982;2023-11-19T10:16:35;99921.41;;;11.28;85.30
53550;BME280;73079;52.914;-0.982;2023-11-19T10:19:01;99929.03;;;11.38;84.51
53550;BME280;73079;52.914;-0.982;2023-11-19T10:21:27;99923.06;;;11.22;85.30
53550;BME280;73079;52.914;-0.982;2023-11-19T10:23:56;99927.41;;;11.23;84.62
53550;BME280;73079;52.914;-0.982;2023-11-19T10:26:23;99910.00;;;11.33;84.37
53550;BME280;73079;52.914;-0.982;2023-11-19T10:28:51;99914.56;;;11.39;84.34
53550;BME280;73079;52.914;-0.982;2023-11-19T10:31:21;99915.75;;;11.56;82.55
53550;BME280;73079;52.914;-0.982;2023-11-19T10:33:53;99904.22;;;11.43;82.69
53550;BME280;73079;52.914;-0.982;2023-11-19T10:36:19;99901.28;;;11.51;83.54
53550;BME280;73079;52.914;-0.982;2023-11-19T10:38:53;99888.84;;;11.63;82.33
53550;BME280;73079;52.914;-0.982;2023-11-19T10:41:27;99887.00;;;11.64;82.10
53550;BME280;73079;52.914;-0.982;2023-11-19T10:43:57;99887.41;;;11.60;82.90
53550;BME280;73079;52.914;-0.982;2023-11-19T10:46:36;99881.84;;;11.62;83.75
53550;BME280;73079;52.914;-0.982;2023-11-19T10:49:03;99882.44;;;11.64;83.55
53550;BME280;73079;52.914;-0.982;2023-11-19T10:51:29;99880.56;;;11.65;83.58
53550;BME280;73079;52.914;-0.982;2023-11-19T10:53:57;99873.13;;;11.60;82.40
53550;BME280;73079;52.914;-0.982;2023-11-19T10:56:30;99876.47;;;11.55;83.40
53550;BME280;73079;52.914;-0.982;2023-11-19T10:58:58;99870.63;;;11.65;83.34
53550;BME280;73079;52.914;-0.982;2023-11-19T11:01:27;99873.50;;;11.77;82.49
53550;BME280;73079;52.914;-0.982;2023-11-19T11:03:59;99874.31;;;11.77;81.57
53550;BME280;73079;52.914;-0.982;2023-11-19T11:06:27;99877.66;;;11.73;82.11
53550;BME280;73079;52.914;-0.982;2023-11-19T11:08:54;99861.94;;;11.70;82.36
53550;BME280;73079;52.914;-0.982;2023-11-19T11:11:20;99860.22;;;11.82;82.01
53550;BME280;73079;52.914;-0.982;2023-11-19T11:13:51;99851.88;;;12.04;81.42
53550;BME280;73079;52.914;-0.982;2023-11-19T11:16:21;99849.88;;;11.92;80.51
53550;BME280;73079;52.914;-0.982;2023-11-19T11:18:49;99856.94;;;11.80;81.99
53550;BME280;73079;52.914;-0.982;2023-11-19T11:21:19;99844.88;;;11.89;81.53
53550;BME280;73079;52.914;-0.982;2023-11-19T11:24:01;99854.38;;;11.98;81.33
53550;BME280;73079;52.914;-0.982;2023-11-19T11:26:48;99850.66;;;12.00;82.01
53550;BME280;73079;52.914;-0.982;2023-11-19T11:29:24;99849.41;;;11.95;82.80
53550;BME280;73079;52.914;-0.982;2023-11-19T11:31:58;99860.56;;;12.06;83.22
53550;BME280;73079;52.914;-0.982;2023-11-19T11:34:48;99852.88;;;12.09;82.36
53550;BME280;73079;52.914;-0.982;2023-11-19T11:37:18;99844.00;;;12.02;83.67
53550;BME280;73079;52.914;-0.982;2023-11-19T11:39:47;99845.09;;;11.88;84.24
53550;BME280;73079;52.914;-0.982;2023-11-19T11:42:34;99853.59;;;11.91;86.57
53550;BME280;73079;52.914;-0.982;2023-11-19T11:45:01;99845.75;;;11.83;89.42
53550;BME280;73079;52.914;-0.982;2023-11-19T11:50:54;99838.72;;;11.75;93.15
53550;BME280;73079;52.914;-0.982;2023-11-19T11:53:21;99839.19;;;11.66;100.00
53550;BME280;73079;52.914;-0.982;2023-11-19T11:55:58;99830.44;;;11.77;100.00
53550;BME280;73079;52.914;-0.982;2023-11-19T11:58:35;99830.41;;;11.84;100.00
53550;BME280;73079;52.914;-0.982;2023-11-19T12:01:04;99833.25;;;11.95;98.08
53550;BME280;73079;52.914;-0.982;2023-11-19T12:03:32;99829.91;;;12.07;92.98
53550;BME280;73079;52.914;-0.982;2023-11-19T12:06:00;99828.56;;;12.23;90.70
53550;BME280;73079;52.914;-0.982;2023-11-19T12:08:28;99812.03;;;12.19;88.21
53550;BME280;73079;52.914;-0.982;2023-11-19T12:10:57;99824.75;;;12.05;90.75
53550;BME280;73079;52.914;-0.982;2023-11-19T12:13:46;99812.06;;;12.12;89.79
53550;BME280;73079;52.914;-0.982;2023-11-19T12:16:13;99816.19;;;12.15;87.27
53550;BME280;73079;52.914;-0.982;2023-11-19T12:18:40;99805.59;;;12.20;88.08
53550;BME280;73079;52.914;-0.982;2023-11-19T12:21:08;99800.88;;;12.15;87.76
53550;BME280;73079;52.914;-0.982;2023-11-19T12:23:44;99802.09;;;12.13;85.78
53550;BME280;73079;52.914;-0.982;2023-11-19T12:26:21;99800.03;;;12.15;86.56
53550;BME280;73079;52.914;-0.982;2023-11-19T12:28:57;99792.63;;;12.10;89.70
53550;BME280;73079;52.914;-0.982;2023-11-19T12:31:25;99788.53;;;12.01;91.03
53550;BME280;73079;52.914;-0.982;2023-11-19T12:33:54;99801.16;;;12.01;95.38
53550;BME280;73079;52.914;-0.982;2023-11-19T12:36:26;99794.13;;;12.00;97.07
53550;BME280;73079;52.914;-0.982;2023-11-19T12:38:55;99798.06;;;11.97;96.00
53550;BME280;73079;52.914;-0.982;2023-11-19T12:41:21;99785.66;;;11.96;97.27
53550;BME280;73079;52.914;-0.982;2023-11-19T12:43:49;99790.56;;;12.06;96.25
53550;BME280;73079;52.914;-0.982;2023-11-19T12:46:20;99774.88;;;11.89;96.53
53550;BME280;73079;52.914;-0.982;2023-11-19T12:48:46;99790.19;;;11.95;95.76
53550;BME280;73079;52.914;-0.982;2023-11-19T12:51:12;99781.50;;;11.93;98.89
53550;BME280;73079;52.914;-0.982;2023-11-19T12:53:49;99793.72;;;11.96;100.00
53550;BME280;73079;52.914;-0.982;2023-11-19T12:56:16;99795.13;;;12.05;100.00
53550;BME280;73079;52.914;-0.982;2023-11-19T12:58:42;99795.16;;;11.98;100.00
53550;BME280;73079;52.914;-0.982;2023-11-19T13:01:09;99789.72;;;12.12;100.00